sensor_id;sensor_type;location;lat;lon;timestamp;pressure;altitude;pressure_sealevel;temperature;humidity
68988;BME280;56038;46.080;11.116;2023-02-28T00:02:06;99718.56;;;5.49;45.03
68988;BME280;56038;46.080;11.116;2023-02-28T00:07:09;99719.50;;;5.43;45.48
68988;BME280;56038;46.080;11.116;2023-02-28T00:12:12;99721.38;;;5.32;45.74
68988;BME280;56038;46.080;11.116;2023-02-28T00:17:14;99722.25;;;5.31;45.41
68988;BME280;56038;46.080;11.116;2023-02-28T00:22:19;99727.44;;;5.31;45.36
68988;BME280;56038;46.080;11.116;2023-02-28T00:27:21;99734.16;;;5.44;45.51
68988;BME280;56038;46.080;11.116;2023-02-28T00:32:23;99724.63;;;5.48;45.42
68988;BME280;56038;46.080;11.116;2023-02-28T00:37:26;99730.78;;;5.40;45.99
68988;BME280;56038;46.080;11.116;2023-02-28T00:42:28;99726.50;;;5.35;46.22
68988;BME280;56038;46.080;11.116;2023-02-28T00:47:30;99726.56;;;5.32;46.65
68988;BME280;56038;46.080;11.116;2023-02-28T00:52:33;99730.88;;;5.31;46.27
68988;BME280;56038;46.080;11.116;2023-02-28T00:57:35;99738.66;;;5.31;46.53
68988;BME280;56038;46.080;11.116;2023-02-28T01:02:37;99751.75;;;5.21;47.50
68988;BME280;56038;46.080;11.116;2023-02-28T01:07:40;99743.06;;;5.25;47.44
68988;BME280;56038;46.080;11.116;2023-02-28T01:12:42;99740.38;;;5.31;46.80
68988;BME280;56038;46.080;11.116;2023-02-28T01:17:43;99741.19;;;5.37;46.51
68988;BME280;56038;46.080;11.116;2023-02-28T01:22:46;99739.44;;;5.36;47.10
68988;BME280;56038;46.080;11.116;2023-02-28T01:27:48;99752.44;;;5.33;46.55
68988;BME280;56038;46.080;11.116;2023-02-28T01:32:50;99760.19;;;5.33;47.00
68988;BME280;56038;46.080;11.116;2023-02-28T01:37:55;99751.47;;;5.42;46.67
68988;BME280;56038;46.080;11.116;2023-02-28T01:42:56;99755.88;;;5.37;46.32
68988;BME280;56038;46.080;11.116;2023-02-28T01:48:02;99751.75;;;5.19;48.47
68988;BME280;56038;46.080;11.116;2023-02-28T01:53:10;99763.75;;;5.28;47.39
68988;BME280;56038;46.080;11.116;2023-02-28T01:58:14;99757.69;;;5.27;47.79
68988;BME280;56038;46.080;11.116;2023-02-28T02:03:18;99763.75;;;5.26;48.60
68988;BME280;56038;46.080;11.116;2023-02-28T02:08:25;99763.03;;;5.15;50.54
68988;BME280;56038;46.080;11.116;2023-02-28T02:13:49;99764.66;;;5.24;50.40
68988;BME280;56038;46.080;11.116;2023-02-28T02:19:01;99768.13;;;5.23;49.75
68988;BME280;56038;46.080;11.116;2023-02-28T02:24:29;99774.94;;;5.28;50.06
68988;BME280;56038;46.080;11.116;2023-02-28T02:35:28;99775.00;;;5.25;47.86
68988;BME280;56038;46.080;11.116;2023-02-28T02:40:36;99772.31;;;5.31;48.16
68988;BME280;56038;46.080;11.116;2023-02-28T02:45:42;99782.66;;;5.33;47.82
68988;BME280;56038;46.080;11.116;2023-02-28T02:50:54;99780.03;;;5.34;47.44
68988;BME280;56038;46.080;11.116;2023-02-28T02:55:57;99786.97;;;5.32;47.09
68988;BME280;56038;46.080;11.116;2023-02-28T03:01:02;99788.75;;;5.30;47.31
68988;BME280;56038;46.080;11.116;2023-02-28T03:06:06;99791.31;;;5.32;47.13
68988;BME280;56038;46.080;11.116;2023-02-28T03:11:12;99799.88;;;5.35;47.49
68988;BME280;56038;46.080;11.116;2023-02-28T03:16:29;99792.13;;;5.37;47.96
68988;BME280;56038;46.080;11.116;2023-02-28T03:21:39;99789.38;;;5.48;47.88
68988;BME280;56038;46.080;11.116;2023-02-28T03:26:44;99795.41;;;5.50;46.96
68988;BME280;56038;46.080;11.116;2023-02-28T03:31:50;99792.84;;;5.47;47.42
68988;BME280;56038;46.080;11.116;2023-02-28T03:36:57;99796.50;;;5.30;47.85
68988;BME280;56038;46.080;11.116;2023-02-28T03:42:04;99790.63;;;5.16;48.22
68988;BME280;56038;46.080;11.116;2023-02-28T03:47:10;99797.50;;;5.22;48.14
68988;BME280;56038;46.080;11.116;2023-02-28T03:52:17;99805.16;;;5.29;47.91
68988;BME280;56038;46.080;11.116;2023-02-28T03:57:27;99813.81;;;5.27;48.75
68988;BME280;56038;46.080;11.116;2023-02-28T04:02:31;99813.00;;;5.23;48.38
68988;BME280;56038;46.080;11.116;2023-02-28T04:07:34;99815.59;;;5.20;48.13
68988;BME280;56038;46.080;11.116;2023-02-28T04:12:36;99825.97;;;5.22;47.72
68988;BME280;56038;46.080;11.116;2023-02-28T04:17:38;99826.88;;;5.16;47.87
68988;BME280;56038;46.080;11.116;2023-02-28T04:22:41;99825.97;;;5.22;47.81
68988;BME280;56038;46.080;11.116;2023-02-28T04:27:43;99818.97;;;5.28;47.41
68988;BME280;56038;46.080;11.116;2023-02-28T04:32:45;99812.00;;;5.33;47.47
68988;BME280;56038;46.080;11.116;2023-02-28T04:37:48;99814.75;;;5.23;47.80
68988;BME280;56038;46.080;11.116;2023-02-28T04:42:49;99817.41;;;5.14;48.23
68988;BME280;56038;46.080;11.116;2023-02-28T04:47:51;99825.13;;;5.18;48.89
68988;BME280;56038;46.080;11.116;2023-02-28T04:52:56;99809.53;;;5.24;48.66
68988;BME280;56038;46.080;11.116;2023-02-28T04:57:58;99814.81;;;5.15;50.15
68988;BME280;56038;46.080;11.116;2023-02-28T05:02:59;99816.69;;;5.01;50.33
68988;BME280;56038;46.080;11.116;2023-02-28T05:08:03;99822.63;;;5.10;50.19
68988;BME280;56038;46.080;11.116;2023-02-28T05:13:05;99827.03;;;5.05;51.15
68988;BME280;56038;46.080;11.116;2023-02-28T05:18:08;99833.09;;;5.00;50.70
68988;BME280;56038;46.080;11.116;2023-02-28T05:23:12;99840.09;;;4.92;51.07
68988;BME280;56038;46.080;11.116;2023-02-28T05:28:15;99838.25;;;5.03;51.34
68988;BME280;56038;46.080;11.116;2023-02-28T05:33:16;99839.16;;;4.97;51.11
68988;BME280;56038;46.080;11.116;2023-02-28T05:38:19;99840.13;;;4.87;50.98
68988;BME280;56038;46.080;11.116;2023-02-28T05:43:21;99837.56;;;4.84;51.59
68988;BME280;56038;46.080;11.116;2023-02-28T05:48:23;99839.28;;;4.84;51.22
68988;BME280;56038;46.080;11.116;2023-02-28T05:53:27;99847.09;;;4.80;51.54
68988;BME280;56038;46.080;11.116;2023-02-28T05:58:29;99847.06;;;4.84;51.43
68988;BME280;56038;46.080;11.116;2023-02-28T06:03:32;99850.47;;;4.89;51.23
68988;BME280;56038;46.080;11.116;2023-02-28T06:08:35;99852.31;;;4.73;52.00
68988;BME280;56038;46.080;11.116;2023-02-28T06:13:37;99852.91;;;5.04;53.56
68988;BME280;56038;46.080;11.116;2023-02-28T06:18:38;99865.88;;;6.42;59.70
68988;BME280;56038;46.080;11.116;2023-02-28T06:23:42;99857.44;;;8.87;54.69
68988;BME280;56038;46.080;11.116;2023-02-28T06:28:44;99869.78;;;8.79;50.70
68988;BME280;56038;46.080;11.116;2023-02-28T06:33:47;99880.34;;;7.08;50.04
68988;BME280;56038;46.080;11.116;2023-02-28T06:38:50;99883.75;;;6.02;52.14
68988;BME280;56038;46.080;11.116;2023-02-28T06:43:55;99885.13;;;5.58;52.15
68988;BME280;56038;46.080;11.116;2023-02-28T06:48:57;99892.19;;;5.46;51.96
68988;BME280;56038;46.080;11.116;2023-02-28T06:54:00;99890.53;;;5.38;51.68
68988;BME280;56038;46.080;11.116;2023-02-28T06:59:02;99897.38;;;5.44;51.42
68988;BME280;56038;46.080;11.116;2023-02-28T07:04:05;99895.53;;;5.52;51.14
68988;BME280;56038;46.080;11.116;2023-02-28T07:09:08;99896.53;;;5.44;50.36
68988;BME280;56038;46.080;11.116;2023-02-28T07:14:11;99891.31;;;5.45;50.31
68988;BME280;56038;46.080;11.116;2023-02-28T07:19:13;99883.41;;;5.59;49.85
68988;BME280;56038;46.080;11.116;2023-02-28T07:24:16;99884.03;;;5.78;48.76
68988;BME280;56038;46.080;11.116;2023-02-28T07:29:18;99884.41;;;6.18;49.94
68988;BME280;56038;46.080;11.116;2023-02-28T07:34:20;99875.69;;;6.22;48.48
68988;BME280;56038;46.080;11.116;2023-02-28T07:39:24;99885.00;;;6.37;48.03
68988;BME280;56038;46.080;11.116;2023-02-28T07:44:25;99884.81;;;6.49;47.73
68988;BME280;56038;46.080;11.116;2023-02-28T07:49:27;99890.81;;;6.52;47.75
68988;BME280;56038;46.080;11.116;2023-02-28T07:54:31;99891.69;;;6.51;46.83
68988;BME280;56038;46.080;11.116;2023-02-28T07:59:32;99890.63;;;6.61;47.25
68988;BME280;56038;46.080;11.116;2023-02-28T08:04:34;99895.78;;;6.66;47.10
68988;BME280;56038;46.080;11.116;2023-02-28T08:09:37;99891.53;;;6.60;47.47
68988;BME280;56038;46.080;11.116;2023-02-28T08:14:39;99886.31;;;6.64;47.07
68988;BME280;56038;46.080;11.116;2023-02-28T08:19:41;99893.16;;;6.68;46.89
68988;BME280;56038;46.080;11.116;2023-02-28T08:24:44;99889.56;;;7.24;49.30
68988;BME280;56038;46.080;11.116;2023-02-28T08:29:46;99881.16;;;7.58;46.93
68988;BME280;56038;46.080;11.116;2023-02-28T08:34:48;99886.72;;;7.38;48.02
68988;BME280;56038;46.080;11.116;2023-02-28T08:39:51;99880.59;;;8.25;47.68
68988;BME280;56038;46.080;11.116;2023-02-28T08:44:53;99883.34;;;8.18;45.91
68988;BME280;56038;46.080;11.116;2023-02-28T08:49:54;99879.09;;;8.14;45.39
68988;BME280;56038;46.080;11.116;2023-02-28T08:54:58;99884.09;;;8.24;44.65
68988;BME280;56038;46.080;11.116;2023-02-28T09:00:00;99877.09;;;8.26;44.44
68988;BME280;56038;46.080;11.116;2023-02-28T09:05:05;99875.75;;;8.47;44.27
68988;BME280;56038;46.080;11.116;2023-02-28T09:10:09;99875.75;;;8.83;43.34
68988;BME280;56038;46.080;11.116;2023-02-28T09:15:11;99880.44;;;9.37;42.42
68988;BME280;56038;46.080;11.116;2023-02-28T09:20:13;99876.66;;;9.79;41.52
68988;BME280;56038;46.080;11.116;2023-02-28T09:25:16;99876.31;;;9.90;40.94
68988;BME280;56038;46.080;11.116;2023-02-28T09:30:18;99877.00;;;10.54;40.18
68988;BME280;56038;46.080;11.116;2023-02-28T09:35:20;99875.66;;;11.20;38.88
68988;BME280;56038;46.080;11.116;2023-02-28T09:40:25;99868.94;;;12.10;37.80
68988;BME280;56038;46.080;11.116;2023-02-28T09:45:31;99871.22;;;11.95;37.36
68988;BME280;56038;46.080;11.116;2023-02-28T09:50:37;99872.03;;;12.85;36.04
68988;BME280;56038;46.080;11.116;2023-02-28T09:55:44;99863.00;;;12.92;33.94
68988;BME280;56038;46.080;11.116;2023-02-28T10:00:56;99865.50;;;13.56;34.09
68988;BME280;56038;46.080;11.116;2023-02-28T10:06:08;99859.91;;;13.64;33.39
68988;BME280;56038;46.080;11.116;2023-02-28T10:11:16;99849.84;;;13.34;33.73
68988;BME280;56038;46.080;11.116;2023-02-28T10:16:25;99852.97;;;13.02;33.09
68988;BME280;56038;46.080;11.116;2023-02-28T10:21:33;99841.22;;;13.90;33.27
68988;BME280;56038;46.080;11.116;2023-02-28T10:26:36;99846.47;;;14.98;31.70
68988;BME280;56038;46.080;11.116;2023-02-28T10:31:39;99829.03;;;15.48;31.02
68988;BME280;56038;46.080;11.116;2023-02-28T10:36:41;99826.81;;;16.21;30.67
68988;BME280;56038;46.080;11.116;2023-02-28T10:41:45;99830.56;;;16.16;29.94
68988;BME280;56038;46.080;11.116;2023-02-28T10:46:48;99830.88;;;16.58;29.67
68988;BME280;56038;46.080;11.116;2023-02-28T10:51:52;99821.94;;;16.76;25.96
68988;BME280;56038;46.080;11.116;2023-02-28T10:57:16;99809.44;;;16.94;26.52
68988;BME280;56038;46.080;11.116;2023-02-28T11:02:31;99807.03;;;17.33;25.93
68988;BME280;56038;46.080;11.116;2023-02-28T11:07:33;99800.44;;;15.07;29.50
68988;BME280;56038;46.080;11.116;2023-02-28T11:12:37;99796.66;;;15.95;29.57
68988;BME280;56038;46.080;11.116;2023-02-28T11:17:42;99782.66;;;16.40;28.63
68988;BME280;56038;46.080;11.116;2023-02-28T11:22:45;99774.50;;;17.61;27.51
68988;BME280;56038;46.080;11.116;2023-02-28T11:27:50;99773.56;;;17.77;26.38
68988;BME280;56038;46.080;11.116;2023-02-28T11:32:52;99776.16;;;18.32;26.63
68988;BME280;56038;46.080;11.116;2023-02-28T11:37:54;99761.66;;;18.77;25.93
68988;BME280;56038;46.080;11.116;2023-02-28T11:43:08;99743.91;;;18.92;23.00
68988;BME280;56038;46.080;11.116;2023-02-28T11:48:18;99732.63;;;19.52;23.79
68988;BME280;56038;46.080;11.116;2023-02-28T11:53:34;99715.75;;;20.26;22.45
68988;BME280;56038;46.080;11.116;2023-02-28T11:58:51;99712.63;;;20.56;21.10
68988;BME280;56038;46.080;11.116;2023-02-28T12:04:04;99705.03;;;18.93;23.56
68988;BME280;56038;46.080;11.116;2023-02-28T12:09:23;99699.09;;;20.24;21.66
68988;BME280;56038;46.080;11.116;2023-02-28T12:14:50;99679.72;;;20.92;21.81
68988;BME280;56038;46.080;11.116;2023-02-28T12:20:03;99674.06;;;21.53;20.62
68988;BME280;56038;46.080;11.116;2023-02-28T12:25:43;99673.94;;;21.21;18.88
68988;BME280;56038;46.080;11.116;2023-02-28T12:30:54;99662.09;;;20.69;20.70
68988;BME280;56038;46.080;11.116;2023-02-28T12:35:59;99644.25;;;20.71;21.85
68988;BME280;56038;46.080;11.116;2023-02-28T12:41:04;99643.84;;;18.72;22.61
68988;BME280;56038;46.080;11.116;2023-02-28T12:46:10;99631.31;;;18.23;22.67
68988;BME280;56038;46.080;11.116;2023-02-28T12:51:15;99625.06;;;20.68;21.93
68988;BME280;56038;46.080;11.116;2023-02-28T12:56:21;99629.28;;;21.15;21.06
68988;BME280;56038;46.080;11.116;2023-02-28T13:01:39;99612.38;;;20.71;19.23
68988;BME280;56038;46.080;11.116;2023-02-28T13:06:57;99601.97;;;21.46;19.07
68988;BME280;56038;46.080;11.116;2023-02-28T13:12:12;99602.47;;;21.72;18.10
68988;BME280;56038;46.080;11.116;2023-02-28T13:17:19;99589.56;;;21.89;17.97
68988;BME280;56038;46.080;11.116;2023-02-28T13:22:38;99578.75;;;19.55;20.23
68988;BME280;56038;46.080;11.116;2023-02-28T13:27:40;99573.75;;;19.98;21.12
68988;BME280;56038;46.080;11.116;2023-02-28T13:32:44;99572.97;;;19.13;19.10
68988;BME280;56038;46.080;11.116;2023-02-28T13:37:47;99568.38;;;18.41;21.51
68988;BME280;56038;46.080;11.116;2023-02-28T13:42:52;99563.38;;;19.24;21.61
68988;BME280;56038;46.080;11.116;2023-02-28T13:47:59;99557.09;;;19.61;20.71
68988;BME280;56038;46.080;11.116;2023-02-28T13:53:33;99547.13;;;19.41;19.98
68988;BME280;56038;46.080;11.116;2023-02-28T13:58:43;99546.06;;;19.07;21.77
68988;BME280;56038;46.080;11.116;2023-02-28T14:04:20;99541.59;;;18.45;22.91
68988;BME280;56038;46.080;11.116;2023-02-28T14:09:29;99531.94;;;17.68;23.83
68988;BME280;56038;46.080;11.116;2023-02-28T14:14:54;99537.22;;;16.73;24.94
68988;BME280;56038;46.080;11.116;2023-02-28T14:19:59;99530.47;;;15.96;26.33
68988;BME280;56038;46.080;11.116;2023-02-28T14:25:10;99542.59;;;15.23;27.42
68988;BME280;56038;46.080;11.116;2023-02-28T14:30:43;99534.78;;;14.58;29.22
68988;BME280;56038;46.080;11.116;2023-02-28T14:36:01;99522.47;;;13.93;29.48
68988;BME280;56038;46.080;11.116;2023-02-28T14:41:11;99515.44;;;13.41;31.01
68988;BME280;56038;46.080;11.116;2023-02-28T14:46:14;99520.91;;;12.63;32.78
68988;BME280;56038;46.080;11.116;2023-02-28T14:51:22;99517.16;;;12.11;34.50
68988;BME280;56038;46.080;11.116;2023-02-28T14:56:28;99503.84;;;11.75;35.13
68988;BME280;56038;46.080;11.116;2023-02-28T15:01:32;99505.47;;;11.36;35.39
68988;BME280;56038;46.080;11.116;2023-02-28T15:06:35;99511.03;;;11.07;36.55
68988;BME280;56038;46.080;11.116;2023-02-28T15:11:38;99507.13;;;10.73;37.13
68988;BME280;56038;46.080;11.116;2023-02-28T15:16:42;99513.03;;;10.55;39.25
68988;BME280;56038;46.080;11.116;2023-02-28T15:21:49;99510.81;;;10.21;39.43
68988;BME280;56038;46.080;11.116;2023-02-28T15:26:54;99510.28;;;9.86;40.54
68988;BME280;56038;46.080;11.116;2023-02-28T15:31:59;99506.91;;;9.58;41.66
68988;BME280;56038;46.080;11.116;2023-02-28T15:37:06;99520.00;;;9.30;41.72
68988;BME280;56038;46.080;11.116;2023-02-28T15:42:28;99528.19;;;9.19;42.26
68988;BME280;56038;46.080;11.116;2023-02-28T15:47:31;99525.97;;;9.07;42.22
68988;BME280;56038;46.080;11.116;2023-02-28T15:52:38;99532.63;;;8.89;42.44
68988;BME280;56038;46.080;11.116;2023-02-28T15:57:41;99539.00;;;8.79;43.04
68988;BME280;56038;46.080;11.116;2023-02-28T16:02:42;99539.94;;;8.77;43.25
68988;BME280;56038;46.080;11.116;2023-02-28T16:07:46;99534.44;;;8.58;43.75
68988;BME280;56038;46.080;11.116;2023-02-28T16:12:49;99542.16;;;8.61;42.61
68988;BME280;56038;46.080;11.116;2023-02-28T16:17:50;99541.84;;;8.42;44.33
68988;BME280;56038;46.080;11.116;2023-02-28T16:22:54;99537.84;;;8.29;44.20
68988;BME280;56038;46.080;11.116;2023-02-28T16:27:56;99544.88;;;8.25;45.18
68988;BME280;56038;46.080;11.116;2023-02-28T16:33:00;99544.22;;;8.17;44.83
68988;BME280;56038;46.080;11.116;2023-02-28T16:38:06;99550.56;;;8.08;45.31
68988;BME280;56038;46.080;11.116;2023-02-28T16:43:13;99561.97;;;8.03;44.70
68988;BME280;56038;46.080;11.116;2023-02-28T16:48:16;99558.94;;;7.86;45.98
68988;BME280;56038;46.080;11.116;2023-02-28T16:53:19;99572.28;;;7.73;46.83
68988;BME280;56038;46.080;11.116;2023-02-28T16:58:21;99567.22;;;7.67;46.81
68988;BME280;56038;46.080;11.116;2023-02-28T17:03:27;99574.41;;;7.58;46.85
68988;BME280;56038;46.080;11.116;2023-02-28T17:08:31;99579.88;;;7.47;47.27
68988;BME280;56038;46.080;11.116;2023-02-28T17:13:33;99586.06;;;7.41;47.47
68988;BME280;56038;46.080;11.116;2023-02-28T17:18:34;99593.22;;;7.32;47.25
68988;BME280;56038;46.080;11.116;2023-02-28T17:23:38;99604.72;;;7.21;47.98
68988;BME280;56038;46.080;11.116;2023-02-28T17:28:46;99611.03;;;7.11;47.94
68988;BME280;56038;46.080;11.116;2023-02-28T17:33:48;99621.59;;;7.02;48.28
68988;BME280;56038;46.080;11.116;2023-02-28T17:38:52;99609.63;;;6.97;48.33
68988;BME280;56038;46.080;11.116;2023-02-28T17:43:55;99629.50;;;6.98;47.33
68988;BME280;56038;46.080;11.116;2023-02-28T17:48:57;99630.47;;;6.92;49.26
68988;BME280;56038;46.080;11.116;2023-02-28T17:54:01;99635.78;;;6.86;48.09
68988;BME280;56038;46.080;11.116;2023-02-28T17:59:03;99634.25;;;6.76;48.98
68988;BME280;56038;46.080;11.116;2023-02-28T18:04:05;99642.91;;;6.76;49.59
68988;BME280;56038;46.080;11.116;2023-02-28T18:09:08;99655.03;;;6.76;48.54
68988;BME280;56038;46.080;11.116;2023-02-28T18:14:11;99657.63;;;6.76;48.88
68988;BME280;56038;46.080;11.116;2023-02-28T18:19:13;99659.59;;;6.65;49.23
68988;BME280;56038;46.080;11.116;2023-02-28T18:24:19;99664.94;;;6.57;49.82
68988;BME280;56038;46.080;11.116;2023-02-28T18:29:24;99669.38;;;6.52;48.86
68988;BME280;56038;46.080;11.116;2023-02-28T18:34:26;99672.84;;;6.51;49.64
68988;BME280;56038;46.080;11.116;2023-02-28T18:39:31;99670.22;;;6.52;48.71
68988;BME280;56038;46.080;11.116;2023-02-28T18:44:33;99673.63;;;6.54;47.75
68988;BME280;56038;46.080;11.116;2023-02-28T18:49:35;99678.75;;;6.57;47.91
68988;BME280;56038;46.080;11.116;2023-02-28T18:54:38;99682.19;;;6.59;47.28
68988;BME280;56038;46.080;11.116;2023-02-28T18:59:40;99675.34;;;6.55;48.36
68988;BME280;56038;46.080;11.116;2023-02-28T19:04:42;99690.84;;;6.58;47.91
68988;BME280;56038;46.080;11.116;2023-02-28T19:09:45;99687.31;;;6.64;47.21
68988;BME280;56038;46.080;11.116;2023-02-28T19:14:47;99690.56;;;6.74;48.78
68988;BME280;56038;46.080;11.116;2023-02-28T19:19:49;99686.19;;;6.76;47.36
68988;BME280;56038;46.080;11.116;2023-02-28T19:24:52;99688.06;;;6.69;47.09
68988;BME280;56038;46.080;11.116;2023-02-28T19:29:53;99690.66;;;6.69;47.58
68988;BME280;56038;46.080;11.116;2023-02-28T19:34:58;99692.56;;;6.59;47.36
68988;BME280;56038;46.080;11.116;2023-02-28T19:40:01;99696.94;;;6.57;46.98
68988;BME280;56038;46.080;11.116;2023-02-28T19:45:06;99701.38;;;6.51;48.07
68988;BME280;56038;46.080;11.116;2023-02-28T19:50:09;99692.81;;;6.47;47.32
68988;BME280;56038;46.080;11.116;2023-02-28T19:55:13;99696.34;;;6.42;47.59
68988;BME280;56038;46.080;11.116;2023-02-28T20:00:15;99696.44;;;6.37;47.53
68988;BME280;56038;46.080;11.116;2023-02-28T20:05:19;99701.97;;;6.19;48.18
68988;BME280;56038;46.080;11.116;2023-02-28T20:10:25;99698.75;;;6.05;48.58
68988;BME280;56038;46.080;11.116;2023-02-28T20:15:27;99703.91;;;6.05;49.91
68988;BME280;56038;46.080;11.116;2023-02-28T20:20:29;99706.59;;;5.98;48.68
68988;BME280;56038;46.080;11.116;2023-02-28T20:25:33;99710.75;;;6.09;47.98
68988;BME280;56038;46.080;11.116;2023-02-28T20:30:37;99715.22;;;6.02;48.80
68988;BME280;56038;46.080;11.116;2023-02-28T20:35:39;99715.22;;;6.02;48.88
68988;BME280;56038;46.080;11.116;2023-02-28T20:40:44;99729.19;;;5.92;49.29
68988;BME280;56038;46.080;11.116;2023-02-28T20:45:50;99732.78;;;5.80;51.91
68988;BME280;56038;46.080;11.116;2023-02-28T20:50:52;99737.34;;;5.64;53.96
68988;BME280;56038;46.080;11.116;2023-02-28T20:55:57;99739.06;;;5.64;50.71
68988;BME280;56038;46.080;11.116;2023-02-28T21:01:00;99745.91;;;5.68;50.77
68988;BME280;56038;46.080;11.116;2023-02-28T21:06:03;99747.81;;;5.57;51.32
68988;BME280;56038;46.080;11.116;2023-02-28T21:11:08;99753.06;;;5.54;51.03
68988;BME280;56038;46.080;11.116;2023-02-28T21:16:12;99753.03;;;5.52;51.71
68988;BME280;56038;46.080;11.116;2023-02-28T21:21:16;99749.66;;;5.49;52.30
68988;BME280;56038;46.080;11.116;2023-02-28T21:26:21;99743.78;;;5.37;53.38
68988;BME280;56038;46.080;11.116;2023-02-28T21:31:27;99740.31;;;5.37;52.04
68988;BME280;56038;46.080;11.116;2023-02-28T21:36:31;99742.06;;;5.33;51.30
68988;BME280;56038;46.080;11.116;2023-02-28T21:41:35;99737.09;;;5.18;52.15
68988;BME280;56038;46.080;11.116;2023-02-28T21:46:37;99734.59;;;5.10;52.56
68988;BME280;56038;46.080;11.116;2023-02-28T21:51:39;99743.31;;;5.05;52.28
68988;BME280;56038;46.080;11.116;2023-02-28T21:56:44;99737.22;;;5.09;52.70
68988;BME280;56038;46.080;11.116;2023-02-28T22:01:49;99744.97;;;5.10;52.00
68988;BME280;56038;46.080;11.116;2023-02-28T22:06:53;99732.19;;;4.97;52.27
68988;BME280;56038;46.080;11.116;2023-02-28T22:11:57;99731.38;;;4.93;51.73
68988;BME280;56038;46.080;11.116;2023-02-28T22:16:59;99725.31;;;4.94;52.07
68988;BME280;56038;46.080;11.116;2023-02-28T22:22:01;99722.66;;;4.99;51.50
68988;BME280;56038;46.080;11.116;2023-02-28T22:27:04;99721.13;;;4.82;53.04
68988;BME280;56038;46.080;11.116;2023-02-28T22:32:07;99718.66;;;4.72;52.43
68988;BME280;56038;46.080;11.116;2023-02-28T22:37:10;99709.13;;;4.77;52.24
68988;BME280;56038;46.080;11.116;2023-02-28T22:42:13;99728.13;;;4.74;51.99
68988;BME280;56038;46.080;11.116;2023-02-28T22:47:15;99747.25;;;4.60;52.26
68988;BME280;56038;46.080;11.116;2023-02-28T22:52:17;99757.59;;;4.57;52.20
68988;BME280;56038;46.080;11.116;2023-02-28T22:57:20;99763.66;;;4.59;52.16
68988;BME280;56038;46.080;11.116;2023-02-28T23:02:22;99773.94;;;4.63;51.84
68988;BME280;56038;46.080;11.116;2023-02-28T23:07:24;99776.56;;;4.60;52.06
68988;BME280;56038;46.080;11.116;2023-02-28T23:12:27;99774.84;;;4.56;52.45
68988;BME280;56038;46.080;11.116;2023-02-28T23:17:30;99771.50;;;4.48;52.78
68988;BME280;56038;46.080;11.116;2023-02-28T23:22:32;99776.78;;;4.34;53.43
68988;BME280;56038;46.080;11.116;2023-02-28T23:27:35;99779.44;;;4.25;53.68
68988;BME280;56038;46.080;11.116;2023-02-28T23:32:37;99766.53;;;4.27;53.27
68988;BME280;56038;46.080;11.116;2023-02-28T23:37:39;99770.03;;;4.19;53.50
68988;BME280;56038;46.080;11.116;2023-02-28T23:42:42;99760.59;;;4.14;53.75
68988;BME280;56038;46.080;11.116;2023-02-28T23:47:44;99754.63;;;4.04;54.42
68988;BME280;56038;46.080;11.116;2023-02-28T23:52:45;99755.56;;;3.97;54.26
68988;BME280;56038;46.080;11.116;2023-02-28T23:57:49;99753.81;;;4.01;54.41
